Time;durP1;ratioP1;P1;durP2;ratioP2;P2;SDS_P1;SDS_P2;PMS_P1;PMS_P2;Temp;Humidity;BMP_temperature;BMP_pressure;BME280_temperature;BME280_humidity;BME280_pressure;Samples;Min_cycle;Max_cycle;Signal;HPM_P1;HPM_P2
2020/12/04 00:01:08;;;;;;;41.27;16.80;;;;;;;3.03;64.86;94479.31;5034120;28;20203;-77
2020/12/04 00:03:33;;;;;;;45.77;18.50;;;;;;;2.46;66.33;94483.72;5034253;28;20571;-77
2020/12/04 00:05:59;;;;;;;39.20;17.17;;;;;;;2.52;67.07;94488.56;5033810;28;20173;-77
2020/12/04 00:08:24;;;;;;;37.57;18.43;;;;;;;3.03;65.41;94489.06;5034205;28;20208;-77
2020/12/04 00:10:50;;;;;;;40.10;17.53;;;;;;;3.21;64.82;94469.56;5033606;28;20177;-78
2020/12/04 00:13:15;;;;;;;34.63;16.43;;;;;;;3.25;64.29;94470.47;5032665;28;20168;-77
2020/12/04 00:15:41;;;;;;;41.13;16.67;;;;;;;3.05;65.02;94487.69;5033965;28;20543;-77
2020/12/04 00:18:06;;;;;;;36.33;17.10;;;;;;;3.25;64.50;94480.25;5033695;28;20184;-77
2020/12/04 00:20:32;;;;;;;36.27;15.40;;;;;;;3.06;66.05;94485.81;5033781;28;20165;-78
2020/12/04 00:22:57;;;;;;;26.27;11.87;;;;;;;3.10;66.12;94486.75;5034019;28;20169;-79
2020/12/04 00:25:23;;;;;;;24.57;12.00;;;;;;;3.04;66.19;94482.72;5033858;28;20647;-80
2020/12/04 00:27:48;;;;;;;21.67;11.47;;;;;;;3.15;66.16;94473.44;5032599;28;20196;-78
2020/12/04 00:30:14;;;;;;;27.57;11.60;;;;;;;3.41;65.41;94479.50;5033672;28;20200;-78
2020/12/04 00:32:39;;;;;;;31.00;12.97;;;;;;;3.07;65.88;94492.63;5033715;28;20231;-79
2020/12/04 00:35:05;;;;;;;25.30;11.53;;;;;;;3.02;65.73;94479.59;5033784;28;20174;-79
2020/12/04 00:37:30;;;;;;;28.50;13.87;;;;;;;2.85;66.36;94480.31;5033848;28;20666;-78
2020/12/04 00:39:56;;;;;;;27.30;12.20;;;;;;;3.19;65.72;94463.78;5033676;28;20211;-79
2020/12/04 00:42:21;;;;;;;12.90;7.27;;;;;;;3.33;65.85;94475.00;5033550;28;20168;-78
2020/12/04 00:44:47;;;;;;;12.37;6.57;;;;;;;3.27;67.15;94478.09;5033441;28;20200;-78
2020/12/04 00:47:12;;;;;;;12.53;6.50;;;;;;;3.31;66.97;94479.84;5033417;28;20200;-77
2020/12/04 00:49:38;;;;;;;22.50;11.00;;;;;;;3.34;65.45;94458.09;5033535;28;21036;-78
2020/12/04 00:52:03;;;;;;;27.47;12.93;;;;;;;3.08;65.27;94462.53;5033677;28;20173;-78
2020/12/04 00:54:29;;;;;;;32.73;15.17;;;;;;;2.82;66.13;94481.72;5033298;28;20196;-78
2020/12/04 00:56:54;;;;;;;25.07;13.37;;;;;;;3.22;65.27;94481.66;5033618;28;20195;-77
2020/12/04 00:59:20;;;;;;;37.60;16.53;;;;;;;2.91;65.01;94490.41;5033546;28;20594;-79
2020/12/04 01:01:45;;;;;;;36.10;16.57;;;;;;;2.90;65.29;94467.78;5032932;28;20169;-78
2020/12/04 01:04:11;;;;;;;33.63;17.50;;;;;;;3.30;64.00;94457.13;5032046;28;20167;-78
2020/12/04 01:06:37;;;;;;;36.77;17.53;;;;;;;3.42;63.87;94452.06;5032844;28;20192;-79
2020/12/04 01:09:04;;;;;;;26.50;12.63;;;;;;;3.33;64.58;94432.78;5033189;28;20172;-78
2020/12/04 01:11:31;;;;;;;15.57;8.15;;;;;;;3.33;66.45;94443.34;5032934;28;20204;-78
2020/12/04 01:13:57;;;;;;;11.98;6.97;;;;;;;3.55;66.32;94441.66;5033092;28;20636;-78
2020/12/04 01:16:22;;;;;;;12.40;6.13;;;;;;;3.52;66.23;94445.66;5033055;28;20237;-78
2020/12/04 01:18:48;;;;;;;9.87;6.07;;;;;;;3.58;67.04;94446.28;5032917;28;20163;-78
2020/12/04 01:21:13;;;;;;;10.73;6.23;;;;;;;3.60;66.65;94431.72;5032588;28;20253;-78
2020/12/04 01:23:39;;;;;;;9.73;5.53;;;;;;;3.65;66.94;94446.63;5031555;28;20246;-78
2020/12/04 01:26:05;;;;;;;11.13;6.37;;;;;;;3.65;67.29;94436.06;5032633;28;20227;-77
2020/12/04 01:28:31;;;;;;;9.23;6.30;;;;;;;3.53;67.83;94427.97;5031270;28;20267;-77
2020/12/04 01:30:56;;;;;;;10.80;6.17;;;;;;;3.50;68.08;94423.31;5032173;28;20215;-77
2020/12/04 01:33:22;;;;;;;11.27;6.87;;;;;;;3.50;68.03;94410.91;5032379;28;20686;-77
2020/12/04 01:35:47;;;;;;;11.63;7.03;;;;;;;3.47;68.48;94402.81;5032484;28;20205;-78
2020/12/04 01:38:13;;;;;;;10.10;6.33;;;;;;;3.41;68.55;94410.88;5032306;28;20160;-78
2020/12/04 01:40:38;;;;;;;9.17;5.70;;;;;;;3.51;68.46;94409.03;5032306;28;20307;-79
2020/12/04 01:43:04;;;;;;;10.17;6.43;;;;;;;3.28;69.46;94414.47;5032112;28;20176;-78
2020/12/04 01:45:34;;;;;;;9.07;5.43;;;;;;;3.38;69.10;94406.25;5032569;28;20207;-78
2020/12/04 01:48:00;;;;;;;9.80;6.40;;;;;;;3.57;68.49;94395.34;5032473;28;20262;-77
2020/12/04 01:50:26;;;;;;;11.47;6.57;;;;;;;3.63;68.11;94401.25;5032390;28;20181;-78
2020/12/04 01:52:51;;;;;;;12.07;5.80;;;;;;;3.77;67.97;94407.16;5014711;28;20195;-78
2020/12/04 01:55:17;;;;;;;9.00;5.80;;;;;;;3.76;68.10;94394.25;5030074;28;20188;-78
2020/12/04 01:57:46;;;;;;;11.03;6.10;;;;;;;3.88;67.55;94397.81;5030861;28;20177;-77
2020/12/04 02:00:11;;;;;;;10.70;5.93;;;;;;;3.92;67.33;94380.22;5031850;28;20200;-77
2020/12/04 02:02:37;;;;;;;8.40;5.43;;;;;;;4.03;67.42;94393.09;5032197;28;20222;-77
2020/12/04 02:05:02;;;;;;;11.37;6.20;;;;;;;3.88;67.31;94381.97;5031751;28;20168;-77
2020/12/04 02:07:50;;;;;;;11.20;6.00;;;;;;;3.65;68.66;94386.66;5031738;28;20208;-78
2020/12/04 02:10:20;;;;;;;11.07;6.00;;;;;;;3.93;67.48;94395.00;5031693;28;20267;-77
2020/12/04 02:12:47;;;;;;;10.57;5.68;;;;;;;3.93;67.44;94375.75;5031947;28;20988;-78
2020/12/04 02:15:12;;;;;;;8.45;5.80;;;;;;;3.85;67.96;94371.25;5030462;28;20176;-77
2020/12/04 02:17:38;;;;;;;9.53;5.83;;;;;;;3.72;67.95;94347.34;5031765;28;20169;-77
2020/12/04 02:20:04;;;;;;;10.30;6.33;;;;;;;3.66;68.60;94375.00;5031758;28;20169;-78
2020/12/04 02:22:36;;;;;;;11.10;6.87;;;;;;;3.61;68.83;94358.56;5032031;28;20187;-78
2020/12/04 02:25:06;;;;;;;10.80;6.90;;;;;;;3.74;68.55;94365.50;5031192;28;20204;-77
2020/12/04 02:27:32;;;;;;;12.35;6.35;;;;;;;3.68;68.78;94358.84;5031521;28;20224;-78
2020/12/04 02:29:57;;;;;;;10.53;6.13;;;;;;;3.79;68.80;94367.22;5031556;28;20180;-77
2020/12/04 02:32:23;;;;;;;12.60;6.43;;;;;;;3.87;68.56;94374.34;5031869;28;20203;-77
2020/12/04 02:34:48;;;;;;;16.40;7.27;;;;;;;3.83;68.61;94374.19;5031469;28;20258;-78
2020/12/04 02:37:14;;;;;;;9.70;6.77;;;;;;;3.89;68.44;94378.22;5030067;28;20176;-77
2020/12/04 02:39:39;;;;;;;12.50;7.03;;;;;;;3.95;68.25;94366.41;5031703;28;20674;-77
2020/12/04 02:42:05;;;;;;;10.17;6.60;;;;;;;4.06;68.35;94366.06;5031592;28;20195;-77
2020/12/04 02:44:31;;;;;;;12.57;7.10;;;;;;;4.12;68.32;94370.09;5035849;28;20176;-77
2020/12/04 02:46:56;;;;;;;10.73;6.53;;;;;;;3.97;69.16;94372.13;5035427;28;20199;-76
2020/12/04 02:49:22;;;;;;;12.60;7.07;;;;;;;3.98;69.71;94362.34;5036623;28;20214;-77
2020/12/04 02:51:48;;;;;;;13.53;6.47;;;;;;;4.01;69.65;94356.44;5036164;28;20184;-78
2020/12/04 02:54:14;;;;;;;13.27;7.40;;;;;;;3.97;69.71;94353.66;5035466;28;20222;-77
2020/12/04 02:56:39;;;;;;;13.40;6.43;;;;;;;4.10;69.37;94361.72;5035193;28;20263;-77
2020/12/04 02:59:05;;;;;;;12.20;6.80;;;;;;;3.97;69.53;94352.88;5036786;28;20236;-77
2020/12/04 03:01:30;;;;;;;15.13;6.60;;;;;;;4.01;69.93;94363.59;5035827;28;20329;-76
2020/12/04 03:03:56;;;;;;;12.50;6.93;;;;;;;3.86;70.09;94333.94;5035122;28;20195;-74
2020/12/04 03:06:22;;;;;;;13.13;6.13;;;;;;;4.02;69.78;94344.00;5033721;28;20176;-75
2020/12/04 03:08:49;;;;;;;14.70;6.57;;;;;;;4.04;70.00;94363.75;5033167;28;20591;-74
2020/12/04 03:11:18;;;;;;;9.18;5.82;;;;;;;4.04;69.63;94361.09;5035577;28;20185;-79
2020/12/04 03:13:43;;;;;;;11.88;6.47;;;;;;;4.08;69.72;94359.34;5033452;28;20184;-74
2020/12/04 03:16:09;;;;;;;9.60;5.93;;;;;;;3.99;70.18;94353.34;5035083;28;20192;-75
2020/12/04 03:18:34;;;;;;;11.37;6.23;;;;;;;4.01;70.17;94355.66;5034561;28;20184;-75
2020/12/04 03:21:00;;;;;;;16.63;7.13;;;;;;;4.01;70.27;94360.94;5033775;28;20176;-77
2020/12/04 03:23:25;;;;;;;17.70;9.50;;;;;;;4.12;69.38;94364.78;5034728;28;20278;-75
2020/12/04 03:25:52;;;;;;;17.30;9.13;;;;;;;4.12;69.35;94349.72;5034638;28;20679;-73
2020/12/04 03:28:18;;;;;;;18.17;9.35;;;;;;;4.17;68.92;94359.34;5032931;28;20720;-76
2020/12/04 03:30:43;;;;;;;11.63;7.20;;;;;;;4.12;69.13;94362.16;5034735;28;20173;-74
2020/12/04 03:33:09;;;;;;;12.87;7.73;;;;;;;4.24;68.48;94367.53;5033369;28;20176;-74
2020/12/04 03:35:34;;;;;;;13.13;7.83;;;;;;;4.10;68.77;94351.91;5034311;28;20165;-75
2020/12/04 03:38:00;;;;;;;12.20;6.93;;;;;;;4.29;68.22;94366.59;5034845;28;20613;-74
2020/12/04 03:40:25;;;;;;;10.70;6.70;;;;;;;4.25;68.16;94347.94;5033478;28;20168;-77
2020/12/04 03:42:51;;;;;;;13.13;6.77;;;;;;;4.31;68.17;94369.69;5034341;28;20264;-75
2020/12/04 03:45:16;;;;;;;10.70;6.00;;;;;;;4.40;68.37;94376.50;5034262;28;20172;-76
2020/12/04 03:47:42;;;;;;;14.30;5.87;;;;;;;4.46;67.59;94382.38;5034434;28;20244;-75
2020/12/04 03:50:07;;;;;;;10.10;6.37;;;;;;;4.44;67.25;94366.09;5032714;28;20172;-76
2020/12/04 03:52:33;;;;;;;9.80;5.83;;;;;;;4.22;68.42;94378.44;5034238;28;20176;-76
2020/12/04 03:54:58;;;;;;;11.87;7.30;;;;;;;4.36;68.04;94380.09;5033571;28;20175;-74
2020/12/04 03:57:24;;;;;;;13.07;5.93;;;;;;;4.30;68.45;94374.22;5033920;28;20177;-76
2020/12/04 03:59:49;;;;;;;8.77;5.73;;;;;;;4.33;68.16;94383.38;5034198;28;20255;-74
2020/12/04 04:02:15;;;;;;;10.57;6.10;;;;;;;4.25;68.48;94369.88;5019284;28;20335;-75
2020/12/04 04:04:40;;;;;;;8.13;5.00;;;;;;;4.20;67.25;94363.97;5015980;28;20165;-75
2020/12/04 04:07:06;;;;;;;10.30;6.10;;;;;;;4.33;67.51;94388.66;5012293;28;20239;-77
2020/12/04 04:09:31;;;;;;;10.00;5.13;;;;;;;4.38;67.27;94383.22;5013969;28;20180;-75
2020/12/04 04:11:57;;;;;;;10.23;5.83;;;;;;;4.49;67.28;94382.53;5012535;28;20212;-75
2020/12/04 04:14:23;;;;;;;7.70;4.83;;;;;;;4.51;67.23;94376.94;5032980;28;20168;-76
2020/12/04 04:16:48;;;;;;;10.93;5.67;;;;;;;4.33;67.73;94370.94;5034811;28;20188;-75
2020/12/04 04:19:14;;;;;;;9.90;5.03;;;;;;;4.38;67.69;94377.94;5034184;28;20741;-77
2020/12/04 04:21:39;;;;;;;7.37;5.10;;;;;;;4.42;67.51;94373.53;5033792;28;20169;-76
2020/12/04 04:24:08;;;;;;;11.90;5.20;;;;;;;4.23;67.75;94358.06;5016066;28;20631;-74
2020/12/04 04:26:34;;;;;;;9.20;5.03;;;;;;;4.21;67.77;94357.63;5033325;28;20295;-76
2020/12/04 04:28:59;;;;;;;7.67;4.73;;;;;;;4.11;68.43;94355.31;5033461;28;20291;-76
2020/12/04 04:31:25;;;;;;;7.93;4.90;;;;;;;4.17;68.09;94362.75;5015553;28;20192;-75
2020/12/04 04:33:50;;;;;;;9.10;4.40;;;;;;;3.84;69.44;94359.13;5033512;28;20178;-74
2020/12/04 04:36:16;;;;;;;8.07;5.40;;;;;;;4.06;68.92;94371.34;5032206;28;20191;-75
2020/12/04 04:38:41;;;;;;;6.97;4.70;;;;;;;4.02;68.92;94349.28;5033562;28;20183;-75
2020/12/04 04:41:07;;;;;;;9.13;5.03;;;;;;;4.04;68.40;94347.09;5032180;28;20179;-74
2020/12/04 04:43:33;;;;;;;7.90;4.37;;;;;;;4.06;68.96;94358.13;5033345;28;20196;-76
2020/12/04 04:46:25;;;;;;;9.10;4.77;;;;;;;3.95;69.25;94355.84;5015307;28;20703;-74
2020/12/04 04:48:52;;;;;;;8.07;4.90;;;;;;;3.87;69.55;94361.94;5031903;28;20218;-75
2020/12/04 04:51:19;;;;;;;7.07;4.60;;;;;;;3.81;69.63;94351.81;5033204;28;20199;-74
2020/12/04 04:53:44;;;;;;;9.35;4.60;;;;;;;3.84;69.75;94351.97;5031828;28;20169;-75
2020/12/04 04:56:10;;;;;;;8.33;4.33;;;;;;;3.84;69.41;94351.22;5031898;28;20580;-77
2020/12/04 04:58:35;;;;;;;5.57;4.47;;;;;;;3.92;69.25;94345.13;5015358;28;20180;-75
2020/12/04 05:01:01;;;;;;;6.47;4.07;;;;;;;3.96;69.28;94336.25;5032790;28;20204;-75
2020/12/04 05:03:26;;;;;;;10.30;5.00;;;;;;;3.99;69.23;94350.72;5033068;28;20178;-76
2020/12/04 05:05:52;;;;;;;11.47;5.70;;;;;;;3.94;69.75;94354.28;5032034;28;20216;-75
2020/12/04 05:08:19;;;;;;;6.53;5.03;;;;;;;3.93;69.96;94347.47;5032738;28;20208;-75
2020/12/04 05:10:49;;;;;;;9.80;5.10;;;;;;;3.84;70.56;94343.28;5031276;28;20178;-75
2020/12/04 05:13:18;;;;;;;8.75;4.65;;;;;;;3.78;70.41;94333.97;5031435;28;20643;-75
2020/12/04 05:15:44;;;;;;;9.18;5.47;;;;;;;4.00;69.94;94340.91;5031279;28;20666;-74
2020/12/04 05:18:12;;;;;;;10.53;5.43;;;;;;;4.00;70.33;94344.31;5032662;28;20184;-74
2020/12/04 05:20:42;;;;;;;8.27;4.90;;;;;;;3.64;71.04;94350.78;5032406;28;20636;-77
2020/12/04 05:23:08;;;;;;;10.63;5.10;;;;;;;3.84;70.89;94359.13;5032435;28;20175;-77
2020/12/04 05:25:38;;;;;;;11.00;5.57;;;;;;;3.91;70.84;94351.50;5031954;28;20184;-76
2020/12/04 05:28:09;;;;;;;9.32;5.57;;;;;;;3.67;71.25;94336.97;5031055;28;20283;-77
2020/12/04 05:30:34;;;;;;;8.10;5.30;;;;;;;3.73;70.92;94337.56;5032153;28;20184;-75
2020/12/04 05:33:04;;;;;;;8.90;5.50;;;;;;;3.76;71.29;94346.72;5032240;28;20164;-76
2020/12/04 05:35:30;;;;;;;9.85;5.53;;;;;;;3.87;70.85;94347.91;5030639;28;20223;-77
2020/12/04 05:38:15;;;;;;;11.93;5.50;;;;;;;3.92;70.82;94339.84;5032166;28;20177;-76
2020/12/04 05:40:42;;;;;;;10.02;5.70;;;;;;;3.94;70.51;94345.59;5030542;28;20184;-76
2020/12/04 05:43:08;;;;;;;11.43;6.43;;;;;;;3.99;70.63;94340.13;5014227;28;20184;-74
2020/12/04 05:45:34;;;;;;;9.57;6.00;;;;;;;4.11;70.13;94345.53;4997677;28;20275;-74
2020/12/04 05:47:59;;;;;;;9.87;5.90;;;;;;;4.20;69.63;94342.84;5031973;28;20319;-76
2020/12/04 05:50:25;;;;;;;13.17;7.07;;;;;;;4.29;69.52;94348.88;5031888;28;20169;-75
2020/12/04 05:52:50;;;;;;;9.77;6.77;;;;;;;4.16;70.04;94349.88;5031805;28;20173;-75
2020/12/04 05:55:16;;;;;;;13.30;7.00;;;;;;;4.26;70.00;94349.50;5031803;28;20263;-76
2020/12/04 05:57:43;;;;;;;12.40;6.93;;;;;;;4.21;70.11;94352.34;5031651;28;20198;-76
2020/12/04 06:00:09;;;;;;;12.07;6.63;;;;;;;4.06;71.13;94358.13;5030759;28;20214;-75
2020/12/04 06:02:34;;;;;;;13.60;6.63;;;;;;;4.10;70.92;94345.84;5031677;28;20188;-76
2020/12/04 06:04:59;;;;;;;12.07;7.17;;;;;;;4.17;71.10;94338.22;5031673;28;20592;-77
2020/12/04 06:07:27;;;;;;;11.73;7.30;;;;;;;4.03;71.29;94340.25;5031480;28;20286;-75
2020/12/04 06:09:56;;;;;;;13.70;7.90;;;;;;;3.97;71.64;94337.78;5014140;28;20183;-76
2020/12/04 06:12:22;;;;;;;16.65;7.28;;;;;;;4.26;71.16;94360.06;5013825;28;20310;-77
2020/12/04 06:14:47;;;;;;;16.83;8.00;;;;;;;4.20;70.56;94351.53;5031778;28;20204;-75
2020/12/04 06:17:13;;;;;;;14.50;7.03;;;;;;;4.19;70.71;94354.50;5029971;28;21187;-76
2020/12/04 06:19:40;;;;;;;11.30;6.20;;;;;;;4.22;70.64;94351.25;5031320;28;20204;-77
2020/12/04 06:22:13;;;;;;;11.63;6.05;;;;;;;4.28;70.50;94365.06;5030292;28;20259;-75
2020/12/04 06:27:38;;;;;;;15.93;7.75;;;;;;;4.34;70.02;94353.97;5030988;28;20235;-74
2020/12/04 06:30:05;;;;;;;12.38;6.60;;;;;;;4.23;70.37;94348.28;5031196;28;20202;-74
2020/12/04 06:32:41;;;;;;;13.68;7.43;;;;;;;4.32;70.53;94363.31;5029647;28;20188;-77
2020/12/04 06:35:07;;;;;;;10.75;7.15;;;;;;;4.32;70.41;94368.59;5031015;28;20586;-77
2020/12/04 06:37:37;;;;;;;13.45;7.97;;;;;;;4.51;69.86;94369.75;5030899;28;20218;-75
2020/12/04 06:40:26;;;;;;;13.65;7.85;;;;;;;4.54;69.90;94373.63;5031114;28;20662;-76
2020/12/04 06:42:52;;;;;;;13.38;7.63;;;;;;;4.51;69.66;94375.06;5029716;28;20176;-76
2020/12/04 06:45:18;;;;;;;13.93;7.37;;;;;;;4.27;70.76;94377.50;5030104;28;20177;-76
2020/12/04 06:47:43;;;;;;;13.80;8.03;;;;;;;4.70;69.81;94389.72;5030680;28;20738;-75
2020/12/04 06:50:10;;;;;;;16.77;7.60;;;;;;;4.83;69.14;94394.03;5031047;28;20207;-74
2020/12/04 06:52:36;;;;;;;15.17;8.13;;;;;;;4.75;69.88;94387.69;5030934;28;20571;-74
2020/12/04 06:55:01;;;;;;;15.63;8.17;;;;;;;4.79;69.87;94393.13;5029997;28;20674;-76
2020/12/04 06:57:27;;;;;;;15.67;7.77;;;;;;;4.38;70.80;94377.94;5030032;28;20173;-76
2020/12/04 06:59:52;;;;;;;18.60;8.60;;;;;;;4.61;70.41;94402.25;5029728;28;20265;-76
2020/12/04 07:02:22;;;;;;;15.43;7.97;;;;;;;4.75;69.71;94408.84;5031009;28;20226;-76
2020/12/04 07:04:52;;;;;;;17.10;8.33;;;;;;;4.84;69.38;94398.22;5030757;28;20707;-75
2020/12/04 07:07:25;;;;;;;13.10;7.65;;;;;;;4.73;69.63;94404.97;5030953;28;21080;-75
2020/12/04 07:09:55;;;;;;;16.40;8.17;;;;;;;4.65;69.97;94400.50;5029556;28;20564;-76
2020/12/04 07:12:21;;;;;;;17.23;7.87;;;;;;;4.82;69.52;94403.03;5029839;28;21183;-75
2020/12/04 07:14:56;;;;;;;16.73;7.43;;;;;;;4.59;69.83;94391.97;5030622;28;20583;-75
2020/12/04 07:17:23;;;;;;;13.02;7.70;;;;;;;4.71;70.35;94401.84;5029727;28;20979;-75
2020/12/04 07:19:49;;;;;;;13.20;7.30;;;;;;;4.68;70.23;94407.78;5030657;28;20211;-75
2020/12/04 07:22:18;;;;;;;17.20;8.90;;;;;;;4.86;69.37;94403.97;5029579;28;20745;-74
2020/12/04 07:24:44;;;;;;;14.87;8.10;;;;;;;4.63;69.78;94370.94;4997200;28;20609;-77
2020/12/04 07:27:12;;;;;;;12.73;7.70;;;;;;;4.86;69.49;94387.31;5030709;28;20646;-74
2020/12/04 07:29:38;;;;;;;18.00;8.57;;;;;;;4.85;69.80;94378.59;5013780;28;20625;-75
2020/12/04 07:32:04;;;;;;;19.05;8.77;;;;;;;4.89;69.72;94382.16;5033121;28;20620;-75
2020/12/04 07:34:30;;;;;;;16.33;8.20;;;;;;;5.02;68.86;94386.44;5034225;28;20257;-75
2020/12/04 07:36:56;;;;;;;17.60;8.23;;;;;;;5.11;69.10;94377.69;5033116;28;20187;-76
2020/12/04 07:39:27;;;;;;;15.87;9.20;;;;;;;5.17;68.99;94389.63;5038419;28;20582;-76
2020/12/04 07:41:53;;;;;;;14.73;7.50;;;;;;;5.22;68.61;94386.78;5040878;28;20647;-77
2020/12/04 07:44:29;;;;;;;18.77;7.30;;;;;;;5.29;68.07;94397.63;5032857;28;20594;-76
2020/12/04 07:47:01;;;;;;;17.03;7.77;;;;;;;5.11;68.71;94391.69;5033144;28;20703;-76
2020/12/04 07:49:27;;;;;;;15.40;8.10;;;;;;;5.27;68.79;94386.56;5034071;28;20579;-76
2020/12/04 07:51:52;;;;;;;14.77;8.70;;;;;;;5.20;68.67;94375.72;5033086;28;20566;-76
2020/12/04 07:54:19;;;;;;;15.80;8.10;;;;;;;4.99;69.68;94395.03;5016578;28;20204;-76
2020/12/04 07:56:54;;;;;;;20.10;9.23;;;;;;;5.01;69.86;94389.41;5032660;28;20180;-76
2020/12/04 07:59:23;;;;;;;15.83;9.53;;;;;;;5.12;69.85;94381.88;5016462;28;20632;-76
2020/12/04 08:01:49;;;;;;;16.77;9.77;;;;;;;5.36;69.15;94386.50;5016583;28;20587;-77
2020/12/04 08:04:17;;;;;;;21.97;9.77;;;;;;;5.43;69.06;94398.13;5032645;28;20636;-74
2020/12/04 08:06:42;;;;;;;18.70;10.50;;;;;;;5.61;67.73;94387.38;5033285;28;20245;-75
2020/12/04 08:09:18;;;;;;;17.57;9.27;;;;;;;5.39;68.32;94388.50;5033631;28;20582;-77
2020/12/04 08:11:51;;;;;;;21.10;10.60;;;;;;;5.29;68.69;94397.63;5032177;28;20172;-77
2020/12/04 08:14:24;;;;;;;22.27;10.90;;;;;;;5.23;69.21;94394.41;5033617;28;20587;-77
2020/12/04 08:16:56;;;;;;;24.03;11.17;;;;;;;5.13;69.90;94391.34;5033411;28;20681;-76
2020/12/04 08:19:28;;;;;;;24.07;10.60;;;;;;;5.18;69.58;94393.81;5033637;28;20680;-77
2020/12/04 08:22:07;;;;;;;23.20;11.33;;;;;;;5.22;69.33;94397.38;5016320;28;21011;-75
2020/12/04 08:24:36;;;;;;;16.77;9.73;;;;;;;4.89;70.56;94400.69;5033224;28;20581;-75
2020/12/04 08:27:14;;;;;;;16.83;8.63;;;;;;;5.22;69.77;94392.06;5014827;28;20741;-75
2020/12/04 08:30:01;;;;;;;17.00;9.50;;;;;;;5.26;69.37;94385.78;5032059;28;20598;-75
2020/12/04 08:32:26;;;;;;;19.37;10.37;;;;;;;5.15;69.57;94386.50;5032192;28;20583;-75
2020/12/04 08:34:52;;;;;;;22.93;10.57;;;;;;;5.26;69.43;94380.50;5015308;28;20587;-74
2020/12/04 08:37:18;;;;;;;24.77;9.87;;;;;;;5.09;70.33;94361.31;5031797;28;20176;-75
2020/12/04 08:39:45;;;;;;;35.80;10.57;;;;;;;4.92;70.95;94368.28;5032960;28;20192;-74
2020/12/04 08:42:11;;;;;;;19.67;9.90;;;;;;;5.01;70.34;94366.38;5033102;28;21014;-74
2020/12/04 08:44:37;;;;;;;22.15;9.55;;;;;;;4.85;71.60;94354.81;5032876;28;20180;-74
2020/12/04 08:47:02;;;;;;;26.97;10.50;;;;;;;4.61;72.40;94350.13;5032833;28;20242;-76
2020/12/04 08:49:28;;;;;;;18.87;9.37;;;;;;;4.69;72.34;94348.50;5032920;28;20196;-75
2020/12/04 08:51:54;;;;;;;20.33;9.53;;;;;;;4.57;73.30;94337.84;5031517;28;20164;-76
2020/12/04 08:54:19;;;;;;;18.37;8.53;;;;;;;4.83;71.84;94362.28;5032805;28;20259;-76
2020/12/04 08:56:52;;;;;;;16.60;8.70;;;;;;;4.99;71.82;94363.28;5032907;28;20255;-76
2020/12/04 08:59:17;;;;;;;16.60;9.15;;;;;;;5.18;70.99;94354.09;5031361;28;20274;-75
2020/12/04 09:01:43;;;;;;;15.03;8.83;;;;;;;5.13;70.93;94364.88;5032249;28;20260;-77
2020/12/04 09:04:08;;;;;;;18.10;9.83;;;;;;;5.14;70.63;94351.31;5032697;28;20226;-76
2020/12/04 09:06:34;;;;;;;20.67;9.57;;;;;;;5.13;71.00;94362.25;5032343;28;20254;-75
2020/12/04 09:08:59;;;;;;;18.10;9.93;;;;;;;5.11;70.77;94353.84;5032617;28;20264;-75
2020/12/04 09:11:25;;;;;;;17.00;9.57;;;;;;;5.24;70.55;94355.47;5032350;28;20173;-76
2020/12/04 09:13:50;;;;;;;20.37;10.77;;;;;;;5.29;70.94;94357.91;5032451;28;20702;-76
2020/12/04 09:16:17;;;;;;;19.60;9.87;;;;;;;5.26;71.10;94340.03;5032148;28;20180;-75
2020/12/04 09:18:42;;;;;;;24.50;11.60;;;;;;;5.14;70.92;94353.19;5032152;28;20203;-75
2020/12/04 09:21:08;;;;;;;19.80;9.57;;;;;;;5.40;70.49;94340.53;5032297;28;20610;-76
2020/12/04 09:23:34;;;;;;;21.20;10.30;;;;;;;5.72;69.30;94343.50;5031068;28;20177;-75
2020/12/04 09:26:00;;;;;;;20.67;10.47;;;;;;;5.80;68.67;94334.72;5030934;28;20303;-75
2020/12/04 09:28:25;;;;;;;21.67;11.30;;;;;;;5.63;69.22;94337.53;5030430;28;21295;-77
2020/12/04 09:30:51;;;;;;;21.67;11.63;;;;;;;5.40;70.39;94335.25;5032274;28;20647;-75
2020/12/04 09:33:16;;;;;;;25.97;11.03;;;;;;;5.56;69.89;94327.47;5014368;28;20196;-76
2020/12/04 09:35:42;;;;;;;22.37;12.23;;;;;;;5.41;70.32;94328.84;5031734;28;20187;-75
2020/12/04 09:38:07;;;;;;;18.93;10.67;;;;;;;5.43;70.30;94328.50;5031786;28;20192;-76
2020/12/04 09:40:33;;;;;;;17.47;9.43;;;;;;;5.53;69.82;94323.59;5032019;28;20177;-77
2020/12/04 09:42:58;;;;;;;21.83;10.00;;;;;;;5.61;70.10;94321.94;5032044;28;20216;-76
2020/12/04 09:45:24;;;;;;;19.67;10.20;;;;;;;5.44;70.82;94324.75;5030156;28;20245;-77
2020/12/04 09:47:49;;;;;;;21.73;11.87;;;;;;;5.39;71.44;94324.97;5031890;28;20232;-76
2020/12/04 09:50:15;;;;;;;17.57;9.07;;;;;;;5.38;70.54;94318.13;5030315;28;20175;-75
2020/12/04 09:52:41;;;;;;;20.20;10.37;;;;;;;5.12;72.12;94337.66;5031234;28;20173;-76
2020/12/04 09:55:07;;;;;;;18.37;9.80;;;;;;;5.03;72.68;94332.41;5031706;28;20176;-76
2020/12/04 09:57:34;;;;;;;21.47;10.93;;;;;;;4.97;73.11;94331.06;5032024;28;20578;-76
2020/12/04 10:00:00;;;;;;;19.20;10.10;;;;;;;5.38;71.47;94331.34;5031546;28;20582;-76
2020/12/04 10:02:26;;;;;;;24.25;11.25;;;;;;;5.54;70.12;94324.34;5030513;28;20578;-76
2020/12/04 10:04:52;;;;;;;24.37;12.00;;;;;;;5.45;71.04;94331.63;5030546;28;20176;-76
2020/12/04 10:07:17;;;;;;;22.67;12.50;;;;;;;5.45;71.37;94329.75;5031266;28;20196;-75
2020/12/04 10:09:43;;;;;;;20.23;10.07;;;;;;;5.56;70.39;94340.72;5030153;28;20595;-77
2020/12/04 10:12:08;;;;;;;23.23;11.33;;;;;;;5.50;70.98;94326.91;5031293;28;20236;-76
2020/12/04 10:14:34;;;;;;;22.43;11.63;;;;;;;5.51;71.39;94325.03;5030178;28;20629;-75
2020/12/04 10:17:00;;;;;;;21.30;11.43;;;;;;;5.55;70.33;94328.56;5031306;28;20183;-76
2020/12/04 10:19:25;;;;;;;18.00;9.57;;;;;;;5.73;69.80;94326.53;5031378;28;20256;-76
2020/12/04 10:21:51;;;;;;;24.33;10.93;;;;;;;5.65;69.92;94322.84;5029223;28;20663;-75
2020/12/04 10:24:17;;;;;;;19.70;10.57;;;;;;;5.65;69.76;94319.44;5031390;28;20649;-77
2020/12/04 10:26:44;;;;;;;31.30;10.63;;;;;;;5.55;71.01;94310.78;5028860;28;20216;-75
2020/12/04 10:29:10;;;;;;;22.42;9.32;;;;;;;5.53;71.08;94317.53;5013488;28;20670;-75
2020/12/04 10:31:36;;;;;;;20.23;9.93;;;;;;;5.63;70.76;94295.94;5031279;28;20222;-75
2020/12/04 10:34:01;;;;;;;21.63;11.10;;;;;;;5.67;70.47;94302.13;5028970;28;20181;-74
2020/12/04 10:36:27;;;;;;;18.93;9.03;;;;;;;5.65;70.86;94309.59;5030903;28;20539;-76
2020/12/04 10:38:54;;;;;;;22.97;10.10;;;;;;;5.55;70.58;94302.06;5026781;28;20220;-75
2020/12/04 10:41:20;;;;;;;16.13;8.43;;;;;;;5.69;70.37;94280.59;5013364;28;20184;-75
2020/12/04 10:43:46;;;;;;;17.03;8.73;;;;;;;5.77;69.63;94296.38;5030992;28;20634;-76
2020/12/04 10:46:12;;;;;;;19.83;8.53;;;;;;;5.77;69.66;94292.97;5013585;28;21011;-74
2020/12/04 10:48:37;;;;;;;21.53;10.00;;;;;;;5.89;69.37;94281.59;5030734;28;20665;-77
2020/12/04 10:51:03;;;;;;;19.27;9.37;;;;;;;5.66;70.37;94276.72;5030779;28;20199;-74
2020/12/04 10:53:29;;;;;;;21.13;8.23;;;;;;;5.78;69.72;94281.25;5030654;28;20160;-77
2020/12/04 10:55:55;;;;;;;22.80;9.03;;;;;;;5.83;69.56;94287.13;5031393;28;20177;-77
2020/12/04 10:58:20;;;;;;;15.77;8.10;;;;;;;5.78;69.67;94295.31;5030988;28;20605;-78
2020/12/04 11:00:47;;;;;;;13.37;7.57;;;;;;;5.76;69.70;94275.53;5045439;28;20282;-78
2020/12/04 11:05:58;;;;;;;15.80;8.20;;;;;;;5.66;70.06;94275.94;5034922;28;21179;-77
2020/12/04 11:08:24;;;;;;;15.30;8.50;;;;;;;5.72;70.51;94275.41;5034692;28;20670;-77
2020/12/04 11:10:49;;;;;;;17.63;8.30;;;;;;;5.56;70.17;94261.25;5025971;28;20256;-78
2020/12/04 11:13:15;;;;;;;15.80;7.80;;;;;;;5.54;70.84;94272.16;5015401;28;20200;-78
2020/12/04 11:15:41;;;;;;;17.13;7.70;;;;;;;5.53;70.51;94260.03;5015203;28;20177;-79
2020/12/04 11:18:07;;;;;;;15.80;8.23;;;;;;;5.57;70.70;94278.69;5013918;28;20652;-76
2020/12/04 11:20:33;;;;;;;18.30;9.40;;;;;;;5.59;70.87;94284.44;5014816;28;20556;-78
2020/12/04 11:22:58;;;;;;;22.20;9.70;;;;;;;5.64;70.63;94270.22;5013977;28;20216;-78
2020/12/04 11:25:24;;;;;;;22.17;9.73;;;;;;;5.70;71.00;94267.00;5014664;28;20177;-78
2020/12/04 11:27:50;;;;;;;18.53;10.27;;;;;;;5.60;70.89;94264.00;5015281;28;20684;-78
2020/12/04 11:30:17;;;;;;;22.83;9.67;;;;;;;5.80;70.43;94255.22;5013352;28;20173;-78
2020/12/04 11:32:43;;;;;;;26.40;11.90;;;;;;;5.77;70.68;94250.56;5014829;28;20592;-78
2020/12/04 11:35:10;;;;;;;22.60;11.87;;;;;;;5.90;69.87;94251.38;5015028;28;20186;-78